createdAt,value
2019-03-04T00:01:10.009Z,9.20
2019-03-04T00:03:41.687Z,9.77
2019-03-04T00:06:13.322Z,10.03
2019-03-04T00:08:44.969Z,12.77
2019-03-04T00:11:16.503Z,17.93
2019-03-04T00:13:48.215Z,12.80
2019-03-04T00:16:19.879Z,12.27
2019-03-04T00:18:51.454Z,12.30
2019-03-04T00:21:23.067Z,12.53
2019-03-04T00:23:54.589Z,13.70
2019-03-04T00:26:26.334Z,10.03
2019-03-04T00:28:57.909Z,13.07
2019-03-04T00:31:29.665Z,10.80
2019-03-04T00:34:01.525Z,10.27
2019-03-04T00:36:33.289Z,9.50
2019-03-04T00:39:06.525Z,14.47
2019-03-04T00:41:39.749Z,14.97
2019-03-04T00:44:12.195Z,14.17
2019-03-04T00:46:43.855Z,12.17
2019-03-04T00:49:15.569Z,11.70
2019-03-04T00:51:47.124Z,11.60
2019-03-04T00:54:18.728Z,11.37
2019-03-04T00:56:50.246Z,11.77
2019-03-04T00:59:22.040Z,10.57
2019-03-04T01:01:53.625Z,12.77
2019-03-04T01:04:25.302Z,12.37
2019-03-04T01:06:59.143Z,12.30
2019-03-04T01:09:30.857Z,12.13
2019-03-04T01:12:02.509Z,12.10
2019-03-04T01:14:34.173Z,12.10
2019-03-04T01:17:09.602Z,13.70
2019-03-04T01:19:41.139Z,12.73
2019-03-04T01:22:13.753Z,12.33
2019-03-04T01:24:47.651Z,12.50
2019-03-04T01:27:19.381Z,11.90
2019-03-04T01:29:51.141Z,16.43
2019-03-04T01:32:25.241Z,14.40
2019-03-04T01:34:56.913Z,14.97
2019-03-04T01:37:28.584Z,13.27
2019-03-04T01:40:00.446Z,12.10
2019-03-04T01:42:32.059Z,12.13
2019-03-04T01:45:03.747Z,12.17
2019-03-04T01:47:35.431Z,12.27
2019-03-04T01:50:07.781Z,12.20
2019-03-04T01:52:39.681Z,11.83
2019-03-04T01:55:12.275Z,12.40
2019-03-04T01:57:43.933Z,12.43
2019-03-04T02:00:17.758Z,12.63
2019-03-04T02:02:49.533Z,12.07
2019-03-04T02:05:22.887Z,12.27
2019-03-04T02:07:54.733Z,11.93
2019-03-04T02:10:26.546Z,12.00
2019-03-04T02:12:59.495Z,12.50
2019-03-04T02:15:31.079Z,10.87
2019-03-04T02:18:02.873Z,11.80
2019-03-04T02:20:34.543Z,12.27
2019-03-04T02:23:06.197Z,11.33
2019-03-04T02:26:20.278Z,11.70
2019-03-04T02:28:52.017Z,10.67
2019-03-04T02:31:25.746Z,10.27
2019-03-04T02:33:57.291Z,13.37
2019-03-04T02:36:28.925Z,12.80
2019-03-04T02:39:00.431Z,11.13
2019-03-04T02:41:33.620Z,12.67
2019-03-04T02:44:07.134Z,12.77
2019-03-04T02:46:38.857Z,15.23
2019-03-04T02:49:10.438Z,14.27
2019-03-04T02:51:42.138Z,13.33
2019-03-04T02:54:13.746Z,11.80
2019-03-04T02:56:48.268Z,11.97
2019-03-04T02:59:22.023Z,12.17
2019-03-04T03:01:53.682Z,13.37
2019-03-04T03:04:27.329Z,13.07
2019-03-04T03:06:59.924Z,12.33
2019-03-04T03:09:31.697Z,12.50
2019-03-04T03:12:03.421Z,12.93
2019-03-04T03:14:35.140Z,13.43
2019-03-04T03:17:06.874Z,13.33
2019-03-04T03:19:38.563Z,12.67
2019-03-04T03:22:10.228Z,11.73
2019-03-04T03:24:41.851Z,13.93
2019-03-04T03:27:13.868Z,22.63
2019-03-04T03:29:45.491Z,15.67
2019-03-04T03:32:17.023Z,12.67
2019-03-04T03:34:50.961Z,13.97
2019-03-04T03:37:22.578Z,13.57
2019-03-04T03:39:54.307Z,17.70
2019-03-04T03:42:25.869Z,16.80
2019-03-04T03:44:57.518Z,16.47
2019-03-04T03:47:29.040Z,15.33
2019-03-04T03:50:00.682Z,13.53
2019-03-04T03:52:32.356Z,14.50
2019-03-04T03:55:03.967Z,14.70
2019-03-04T03:57:35.462Z,14.53
2019-03-04T04:00:12.767Z,22.40
2019-03-04T04:02:44.337Z,17.13
2019-03-04T04:05:15.951Z,16.33
2019-03-04T04:07:47.651Z,18.13
2019-03-04T04:10:19.592Z,25.00
2019-03-04T04:12:54.299Z,19.60
2019-03-04T04:15:26.242Z,17.53
2019-03-04T04:18:01.922Z,15.33
2019-03-04T04:20:33.754Z,17.80
2019-03-04T04:23:05.371Z,15.77
2019-03-04T04:25:37.095Z,17.27
2019-03-04T04:28:10.183Z,13.97
2019-03-04T04:30:42.893Z,14.20
2019-03-04T04:33:14.533Z,16.67
2019-03-04T04:35:46.527Z,18.67
2019-03-04T04:38:18.193Z,16.37
2019-03-04T04:40:52.299Z,14.90
2019-03-04T04:43:23.859Z,17.93
2019-03-04T04:45:55.415Z,19.83
2019-03-04T04:48:27.015Z,19.73
2019-03-04T04:51:01.303Z,20.07
2019-03-04T04:53:32.979Z,21.50
2019-03-04T04:56:06.361Z,19.43
2019-03-04T04:58:40.318Z,20.77
2019-03-04T05:01:11.947Z,17.13
2019-03-04T05:03:46.137Z,16.10
2019-03-04T05:06:17.848Z,17.97
2019-03-04T05:08:49.481Z,17.17
2019-03-04T05:11:22.178Z,17.47
2019-03-04T05:13:53.693Z,18.10
2019-03-04T05:16:25.311Z,18.60
2019-03-04T05:18:56.874Z,25.00
2019-03-04T05:21:28.546Z,23.67
2019-03-04T05:24:00.974Z,20.03
2019-03-04T05:26:34.777Z,23.73
2019-03-04T05:29:06.473Z,27.57
2019-03-04T05:31:38.190Z,27.97
2019-03-04T05:34:09.952Z,20.37
2019-03-04T05:36:44.881Z,22.80
2019-03-04T05:39:19.223Z,22.97
2019-03-04T05:41:51.086Z,20.70
2019-03-04T05:44:25.563Z,20.03
2019-03-04T05:46:57.113Z,20.23
2019-03-04T05:49:28.823Z,18.20
2019-03-04T05:52:00.417Z,17.33
2019-03-04T05:54:32.266Z,16.90
2019-03-04T05:57:04.041Z,17.93
2019-03-04T05:59:38.833Z,19.30
2019-03-04T06:02:11.979Z,16.30
2019-03-04T06:04:45.789Z,16.17
2019-03-04T06:07:40.970Z,16.47
2019-03-04T06:10:15.065Z,15.27
2019-03-04T06:12:46.775Z,16.37
2019-03-04T06:15:20.975Z,16.53
2019-03-04T06:17:52.579Z,16.57
2019-03-04T06:20:25.190Z,17.37
2019-03-04T06:22:57.122Z,17.57
2019-03-04T06:25:29.684Z,17.27
2019-03-04T06:28:01.515Z,17.63
2019-03-04T06:30:33.319Z,17.87
2019-03-04T06:33:08.037Z,19.73
2019-03-04T06:35:42.155Z,16.30
2019-03-04T06:38:13.840Z,17.87
2019-03-04T06:40:45.709Z,17.67
2019-03-04T06:43:17.431Z,19.07
2019-03-04T06:45:49.167Z,18.53
2019-03-04T06:48:20.921Z,16.43
2019-03-04T06:50:54.562Z,17.40
2019-03-04T06:53:39.433Z,17.27
2019-03-04T06:56:19.477Z,18.13
2019-03-04T06:58:53.433Z,18.17
2019-03-04T07:01:42.537Z,18.13
2019-03-04T07:04:22.685Z,17.97
2019-03-04T07:06:57.228Z,18.43
2019-03-04T07:09:29.131Z,18.27
2019-03-04T07:12:01.111Z,17.73
2019-03-04T07:14:33.224Z,17.83
2019-03-04T07:17:05.450Z,20.57
2019-03-04T07:19:38.979Z,22.57
2019-03-04T07:22:15.117Z,17.50
2019-03-04T07:24:47.013Z,21.13
2019-03-04T07:27:18.891Z,19.77
2019-03-04T07:29:50.835Z,18.07
2019-03-04T07:32:22.763Z,17.77
2019-03-04T07:34:54.695Z,17.93
2019-03-04T07:37:26.617Z,17.30
2019-03-04T07:39:58.655Z,17.37
2019-03-04T07:42:31.392Z,20.13
2019-03-04T07:45:03.442Z,18.77
2019-03-04T07:47:35.443Z,18.63
2019-03-04T07:50:07.851Z,18.20
2019-03-04T07:52:39.838Z,18.33
2019-03-04T07:55:11.974Z,15.90
2019-03-04T07:57:43.881Z,16.63
2019-03-04T08:00:15.847Z,16.60
2019-03-04T08:02:47.873Z,16.70
2019-03-04T08:05:23.927Z,16.00
2019-03-04T08:07:55.966Z,17.43
2019-03-04T08:11:08.856Z,16.37
2019-03-04T08:13:47.077Z,15.47
2019-03-04T08:16:21.131Z,16.87
2019-03-04T08:18:52.963Z,16.43
2019-03-04T08:21:24.879Z,16.67
2019-03-04T08:23:56.896Z,21.20
2019-03-04T08:26:28.879Z,16.60
2019-03-04T08:29:00.943Z,17.03
2019-03-04T08:31:34.248Z,14.90
2019-03-04T08:34:09.327Z,16.87
2019-03-04T08:36:41.351Z,17.07
2019-03-04T08:39:13.440Z,16.57
2019-03-04T08:41:45.644Z,16.13
2019-03-04T08:44:21.447Z,16.23
2019-03-04T08:46:53.392Z,15.30
2019-03-04T08:49:26.508Z,15.70
2019-03-04T08:51:58.331Z,23.07
2019-03-04T08:54:30.302Z,19.60
2019-03-04T08:57:04.162Z,15.70
2019-03-04T08:59:35.673Z,19.63
2019-03-04T09:02:10.085Z,17.00
2019-03-04T09:04:42.015Z,17.83
2019-03-04T09:07:15.062Z,13.63
2019-03-04T09:09:46.913Z,17.07
2019-03-04T09:12:20.825Z,16.53
2019-03-04T09:14:53.121Z,15.33
2019-03-04T09:17:25.143Z,16.10
2019-03-04T09:19:57.226Z,18.37
2019-03-04T09:22:28.997Z,14.67
2019-03-04T09:25:00.968Z,16.20
2019-03-04T09:27:32.791Z,17.77
2019-03-04T09:30:04.948Z,17.10
2019-03-04T09:32:38.133Z,14.17
2019-03-04T09:35:11.248Z,12.50
2019-03-04T09:37:43.197Z,14.83
2019-03-04T09:40:16.743Z,13.83
2019-03-04T09:42:49.008Z,15.63
2019-03-04T09:45:21.093Z,14.83
2019-03-04T09:47:52.975Z,14.57
2019-03-04T09:50:27.819Z,13.73
2019-03-04T09:52:59.633Z,18.20
2019-03-04T09:55:31.528Z,14.60
2019-03-04T09:58:03.213Z,15.73
2019-03-04T10:01:07.305Z,21.30
2019-03-04T10:04:22.559Z,14.60
2019-03-04T10:07:30.360Z,14.77
2019-03-04T10:10:44.997Z,14.73
2019-03-04T10:13:52.443Z,21.90
2019-03-04T10:17:03.593Z,19.70
2019-03-04T10:20:23.423Z,16.33
2019-03-04T10:23:08.419Z,17.37
2019-03-04T10:26:03.677Z,16.87
2019-03-04T10:29:09.610Z,16.63
2019-03-04T10:32:25.991Z,16.40
2019-03-04T10:35:42.536Z,15.53
2019-03-04T10:39:22.106Z,19.03
2019-03-04T10:42:13.137Z,13.60
2019-03-04T10:45:52.689Z,16.33
2019-03-04T10:48:24.676Z,15.23
2019-03-04T10:50:56.520Z,14.00
2019-03-04T10:53:28.503Z,15.37
2019-03-04T10:56:00.345Z,13.37
2019-03-04T10:58:32.377Z,13.57
2019-03-04T11:01:04.340Z,14.33
2019-03-04T11:03:36.223Z,13.73
2019-03-04T11:06:10.701Z,15.77
2019-03-04T11:08:42.677Z,14.10
2019-03-04T11:11:14.555Z,14.43
2019-03-04T11:13:46.505Z,14.47
2019-03-04T11:16:18.421Z,14.93
2019-03-04T11:18:50.433Z,14.30
2019-03-04T11:21:22.389Z,15.20
2019-03-04T11:23:55.591Z,14.93
2019-03-04T11:26:27.728Z,14.67
2019-03-04T11:28:59.697Z,14.03
2019-03-04T11:31:31.681Z,13.87
2019-03-04T11:34:03.640Z,14.50
2019-03-04T11:36:35.919Z,15.37
2019-03-04T11:39:42.329Z,13.73
2019-03-04T11:42:19.729Z,13.30
2019-03-04T11:44:51.611Z,12.50
2019-03-04T11:47:27.598Z,12.13
2019-03-04T11:49:59.569Z,13.03
2019-03-04T11:52:31.679Z,12.83
2019-03-04T11:55:03.694Z,12.33
2019-03-04T11:57:36.031Z,14.13
2019-03-04T12:00:17.735Z,13.40
2019-03-04T12:02:49.709Z,13.00
2019-03-04T12:05:22.763Z,13.67
2019-03-04T12:07:54.697Z,13.17
2019-03-04T12:10:26.441Z,13.77
2019-03-04T12:12:58.232Z,13.47
2019-03-04T12:15:29.860Z,13.20
2019-03-04T12:18:01.655Z,13.67
2019-03-04T12:20:33.153Z,13.80
2019-03-04T12:23:05.154Z,13.00
2019-03-04T12:25:36.745Z,14.47
2019-03-04T12:28:08.602Z,12.77
2019-03-04T12:30:40.098Z,12.50
2019-03-04T12:33:13.008Z,13.27
2019-03-04T12:35:44.945Z,30.53
2019-03-04T12:38:17.895Z,12.90
2019-03-04T12:40:49.442Z,13.40
2019-03-04T12:43:21.081Z,12.83
2019-03-04T12:45:52.733Z,14.97
2019-03-04T12:48:24.534Z,13.60
2019-03-04T12:50:56.197Z,12.40
2019-03-04T12:53:37.004Z,13.77
2019-03-04T12:56:01.504Z,12.67
2019-03-04T12:58:33.283Z,13.53
2019-03-04T13:01:05.261Z,13.87
2019-03-04T13:03:36.849Z,12.83
2019-03-04T13:06:08.522Z,13.83
2019-03-04T13:08:40.177Z,13.33
2019-03-04T13:11:11.744Z,13.93
2019-03-04T13:13:43.438Z,13.70
2019-03-04T13:16:15.204Z,15.50
2019-03-04T13:18:46.862Z,13.60
2019-03-04T13:21:18.454Z,13.17
2019-03-04T13:23:50.054Z,13.67
2019-03-04T13:26:21.764Z,13.83
2019-03-04T13:28:53.204Z,14.33
2019-03-04T13:31:26.044Z,13.33
2019-03-04T13:33:57.777Z,14.63
2019-03-04T13:36:29.506Z,14.23
2019-03-04T13:39:01.194Z,14.00
2019-03-04T13:41:34.324Z,14.77
2019-03-04T13:44:06.059Z,13.67
2019-03-04T13:46:37.581Z,13.70
2019-03-04T13:49:10.821Z,14.10
2019-03-04T13:51:42.304Z,13.10
2019-03-04T13:54:14.023Z,14.17
2019-03-04T13:56:45.732Z,13.80
2019-03-04T13:59:17.354Z,13.27
2019-03-04T14:01:52.913Z,14.83
2019-03-04T14:04:24.453Z,13.67
2019-03-04T14:06:56.234Z,12.47
2019-03-04T14:09:27.866Z,12.63
2019-03-04T14:12:00.924Z,11.37
2019-03-04T14:14:33.974Z,11.93
2019-03-04T14:17:08.361Z,10.90
2019-03-04T14:19:41.136Z,11.27
2019-03-04T14:22:12.567Z,14.57
2019-03-04T14:24:46.469Z,14.27
2019-03-04T14:27:20.425Z,16.10
2019-03-04T14:29:52.277Z,12.00
2019-03-04T14:32:23.904Z,11.90
2019-03-04T14:34:56.784Z,10.50
2019-03-04T14:37:28.493Z,10.80
2019-03-04T14:40:00.321Z,10.10
2019-03-04T14:42:32.004Z,11.37
2019-03-04T14:45:03.682Z,12.17
2019-03-04T14:47:35.206Z,11.27
2019-03-04T14:50:10.166Z,13.27
2019-03-04T14:52:45.225Z,14.57
2019-03-04T14:55:18.503Z,14.63
2019-03-04T14:57:50.294Z,13.20
2019-03-04T15:00:31.470Z,17.27
2019-03-04T15:03:03.334Z,21.23
2019-03-04T15:05:35.128Z,13.47
2019-03-04T15:08:08.884Z,16.30
2019-03-04T15:10:40.448Z,12.57
2019-03-04T15:13:12.145Z,11.97
2019-03-04T15:15:43.745Z,12.37
2019-03-04T15:18:15.454Z,15.10
2019-03-04T15:20:47.043Z,13.03
2019-03-04T15:23:18.613Z,13.13
2019-03-04T15:25:51.632Z,14.50
2019-03-04T15:28:23.684Z,14.03
2019-03-04T15:30:59.088Z,10.87
2019-03-04T15:33:31.014Z,14.00
2019-03-04T15:36:03.689Z,12.60
2019-03-04T15:38:36.788Z,13.80
2019-03-04T15:41:08.592Z,11.47
2019-03-04T15:43:40.353Z,12.77
2019-03-04T15:46:12.150Z,12.50
2019-03-04T15:48:43.771Z,15.50
2019-03-04T15:51:15.244Z,14.20
2019-03-04T15:53:46.822Z,15.97
2019-03-04T15:56:18.654Z,12.83
2019-03-04T15:58:51.789Z,16.83
2019-03-04T16:01:23.627Z,13.63
2019-03-04T16:03:55.274Z,12.90
2019-03-04T16:06:27.092Z,13.60
2019-03-04T16:08:58.631Z,12.90
2019-03-04T16:11:31.386Z,13.07
2019-03-04T16:14:02.944Z,14.67
2019-03-04T16:16:34.581Z,13.53
2019-03-04T16:19:06.448Z,15.80
2019-03-04T16:21:38.019Z,16.93
2019-03-04T16:24:09.668Z,14.93
2019-03-04T16:26:41.372Z,13.57
2019-03-04T16:29:13.231Z,13.97
2019-03-04T16:31:44.694Z,15.93
2019-03-04T16:34:16.350Z,14.00
2019-03-04T16:36:47.871Z,13.80
2019-03-04T16:39:21.992Z,12.97
2019-03-04T16:41:55.526Z,12.20
2019-03-04T16:44:27.123Z,16.13
2019-03-04T16:46:58.954Z,16.17
2019-03-04T16:49:30.586Z,13.23
2019-03-04T16:52:02.826Z,11.57
2019-03-04T16:54:34.489Z,12.23
2019-03-04T16:57:14.568Z,11.60
2019-03-04T16:59:46.314Z,11.73
2019-03-04T17:02:17.843Z,11.50
2019-03-04T17:04:49.432Z,11.83
2019-03-04T17:07:23.507Z,11.93
2019-03-04T17:09:57.429Z,11.60
2019-03-04T17:12:29.684Z,10.80
2019-03-04T17:15:01.237Z,9.60
2019-03-04T17:17:33.370Z,10.20
2019-03-04T17:20:06.353Z,10.77
2019-03-04T17:22:39.066Z,10.27
2019-03-04T17:25:11.274Z,11.83
2019-03-04T17:27:43.018Z,14.23
2019-03-04T17:30:16.822Z,14.30
2019-03-04T17:32:48.879Z,12.70
2019-03-04T17:35:20.843Z,20.80
2019-03-04T17:37:53.635Z,25.97
2019-03-04T17:40:26.623Z,17.00
2019-03-04T17:42:58.324Z,12.90
2019-03-04T17:45:30.414Z,13.93
2019-03-04T17:48:01.984Z,13.03
2019-03-04T17:50:35.658Z,13.97
2019-03-04T17:53:08.493Z,14.87
2019-03-04T17:55:40.218Z,12.80
2019-03-04T17:58:11.806Z,13.97
2019-03-04T18:00:52.098Z,13.90
2019-03-04T18:03:23.693Z,13.47
2019-03-04T18:05:55.491Z,13.93
2019-03-04T18:08:27.052Z,14.47
2019-03-04T18:10:58.503Z,13.10
2019-03-04T18:13:30.049Z,17.63
2019-03-04T18:16:01.696Z,18.40
2019-03-04T18:18:34.652Z,18.87
2019-03-04T18:21:06.283Z,15.70
2019-03-04T18:23:37.876Z,18.53
2019-03-04T18:26:13.528Z,20.20
2019-03-04T18:29:14.892Z,17.93
2019-03-04T18:31:59.302Z,22.03
2019-03-04T18:35:17.429Z,15.63
2019-03-04T18:38:32.959Z,15.73
2019-03-04T18:41:26.477Z,17.63
2019-03-04T18:44:32.627Z,17.50
2019-03-04T18:47:42.568Z,14.70
2019-03-04T18:50:14.195Z,17.30
2019-03-04T18:52:45.830Z,16.30
2019-03-04T18:55:17.432Z,16.93
2019-03-04T18:57:49.026Z,15.77
2019-03-04T19:00:22.673Z,15.13
2019-03-04T19:02:54.689Z,14.33
2019-03-04T19:05:27.767Z,13.00
2019-03-04T19:07:59.665Z,13.83
2019-03-04T19:10:31.470Z,16.23
2019-03-04T19:13:03.130Z,14.47
2019-03-04T19:15:36.126Z,15.20
2019-03-04T19:18:07.945Z,13.07
2019-03-04T19:20:39.615Z,15.77
2019-03-04T19:23:11.393Z,17.83
2019-03-04T19:25:43.346Z,16.53
2019-03-04T19:28:14.953Z,16.23
2019-03-04T19:30:46.657Z,17.33
2019-03-04T19:33:18.318Z,15.33
2019-03-04T19:35:49.985Z,17.70
2019-03-04T19:38:21.703Z,18.00
2019-03-04T19:40:53.476Z,18.77
2019-03-04T19:43:32.624Z,18.27
2019-03-04T19:45:58.486Z,16.87
2019-03-04T19:48:31.428Z,17.30
2019-03-04T19:51:03.320Z,15.23
2019-03-04T19:53:35.027Z,17.90
2019-03-04T19:56:06.885Z,20.40
2019-03-04T19:58:38.590Z,22.03
2019-03-04T20:01:11.756Z,19.87
2019-03-04T20:03:43.495Z,19.53
2019-03-04T20:06:15.153Z,24.23
2019-03-04T20:08:49.303Z,20.73
2019-03-04T20:11:21.097Z,18.13
2019-03-04T20:13:52.724Z,19.10
2019-03-04T20:16:24.403Z,15.13
2019-03-04T20:18:56.018Z,18.77
2019-03-04T20:21:27.687Z,30.90
2019-03-04T20:24:00.959Z,21.37
2019-03-04T20:26:32.785Z,13.93
2019-03-04T20:29:04.422Z,13.27
2019-03-04T20:31:36.283Z,14.30
2019-03-04T20:34:08.214Z,14.63
2019-03-04T20:36:39.933Z,15.43
2019-03-04T20:39:15.165Z,14.87
2019-03-04T20:41:46.926Z,15.90
2019-03-04T20:44:18.752Z,15.63
2019-03-04T20:46:51.657Z,16.53
2019-03-04T20:49:24.365Z,16.77
2019-03-04T20:51:56.045Z,21.13
2019-03-04T20:54:29.989Z,17.37
2019-03-04T20:57:01.755Z,20.87
2019-03-04T20:59:35.575Z,19.13
2019-03-04T21:02:08.815Z,19.93
2019-03-04T21:04:42.135Z,18.60
2019-03-04T21:07:14.254Z,17.73
2019-03-04T21:09:45.890Z,15.73
2019-03-04T21:12:18.468Z,15.57
2019-03-04T21:14:51.584Z,17.30
2019-03-04T21:17:23.194Z,14.80
2019-03-04T21:19:58.076Z,16.27
2019-03-04T21:22:29.824Z,15.30
2019-03-04T21:25:01.879Z,14.30
2019-03-04T21:27:33.740Z,14.77
2019-03-04T21:30:18.734Z,17.97
2019-03-04T21:33:08.954Z,17.63
2019-03-04T21:36:16.034Z,18.70
2019-03-04T21:38:48.323Z,16.70
2019-03-04T21:41:29.306Z,17.50
2019-03-04T21:44:10.446Z,14.50
2019-03-04T21:47:04.584Z,16.00
2019-03-04T21:49:40.155Z,13.03
2019-03-04T21:52:25.909Z,12.87
2019-03-04T21:54:57.766Z,12.50
2019-03-04T21:57:42.642Z,12.57
2019-03-04T22:00:23.184Z,11.03
2019-03-04T22:03:24.243Z,11.83
2019-03-04T22:05:56.097Z,12.67
2019-03-04T22:08:29.114Z,14.80
2019-03-04T22:11:04.850Z,16.37
2019-03-04T22:13:38.325Z,15.33
2019-03-04T22:16:10.123Z,15.57
2019-03-04T22:18:41.802Z,12.67
2019-03-04T22:21:16.715Z,13.00
2019-03-04T22:23:50.174Z,14.63
2019-03-04T22:26:21.790Z,13.60
2019-03-04T22:28:55.098Z,17.67
2019-03-04T22:31:28.354Z,14.90
2019-03-04T22:34:05.442Z,15.73
2019-03-04T22:36:38.215Z,15.27
2019-03-04T22:39:11.025Z,14.43
2019-03-04T22:41:42.807Z,14.07
2019-03-04T22:44:18.615Z,15.53
2019-03-04T22:46:52.543Z,14.97
2019-03-04T22:49:25.150Z,14.37
2019-03-04T22:51:57.648Z,12.67
2019-03-04T22:54:29.231Z,13.23
2019-03-04T22:57:00.899Z,12.87
2019-03-04T22:59:32.490Z,12.40
2019-03-04T23:02:06.588Z,11.87
2019-03-04T23:05:10.578Z,11.53
2019-03-04T23:07:45.212Z,13.37
2019-03-04T23:10:34.900Z,12.20
2019-03-04T23:13:22.428Z,13.37
2019-03-04T23:15:54.949Z,12.60
2019-03-04T23:18:27.598Z,12.67
2019-03-04T23:21:01.353Z,12.77
2019-03-04T23:23:34.024Z,11.97
2019-03-04T23:26:05.858Z,11.37
2019-03-04T23:28:39.690Z,11.80
2019-03-04T23:31:10.906Z,11.80
2019-03-04T23:33:42.514Z,12.53
2019-03-04T23:36:20.309Z,11.53
2019-03-04T23:38:51.995Z,11.17
2019-03-04T23:41:23.617Z,10.87
2019-03-04T23:43:55.386Z,12.47
2019-03-04T23:46:26.995Z,11.73
2019-03-04T23:49:01.283Z,11.80
2019-03-04T23:51:32.883Z,13.27
2019-03-04T23:54:04.641Z,12.37
2019-03-04T23:56:47.513Z,12.70
2019-03-04T23:59:19.106Z,12.10
